Five Forks, West Virginia
Current Conditions -  °F | °C
As of 2:53 PM on Wednesday 28 Jan 2015 (Local Time) from KPKB Reporting Station
Clear Clear  
Wind Chill: 28°   Ceiling: Unl
Heat Index: 28°   Visibility: 10mi
Dew Point: 11°   Wind: 0mph
Humidity: 49%   Direction: NA
Pressure: 30.36"   Gusts: NA
Location:  38.9679°N, 81.1579°W
Report Text: KPKB 281953Z 00000KT 10SM CLR M02/M12 A3036 RMK AO2 SLP293 T10221117
Loading
Personal Weather Stations






























Interactive Weather Map New forecast layout! Learn more

10-Day Weather Forecast

Advertisements
Track Severe Weather on mobile